sensor_id;sensor_type;location;lat;lon;timestamp;pressure;altitude;pressure_sealevel;temperature;humidity
51299;BME280;37382;45.192;9.790;2022-07-23T07:16:31;101144.91;;;29.20;70.19
51299;BME280;37382;45.192;9.790;2022-07-23T07:18:59;101153.34;;;29.43;68.13
51299;BME280;37382;45.192;9.790;2022-07-23T07:21:27;101151.84;;;29.59;66.91
51299;BME280;37382;45.192;9.790;2022-07-23T07:23:55;101144.44;;;29.41;67.98
51299;BME280;37382;45.192;9.790;2022-07-23T07:26:22;101153.97;;;29.76;67.56
51299;BME280;37382;45.192;9.790;2022-07-23T07:28:50;101151.78;;;29.51;67.34
51299;BME280;37382;45.192;9.790;2022-07-23T07:31:17;101160.81;;;29.48;67.24
51299;BME280;37382;45.192;9.790;2022-07-23T07:33:45;101152.31;;;29.75;67.54
51299;BME280;37382;45.192;9.790;2022-07-23T07:36:13;101152.75;;;29.69;67.34
51299;BME280;37382;45.192;9.790;2022-07-23T07:38:45;101156.50;;;29.27;67.39
51299;BME280;37382;45.192;9.790;2022-07-23T07:41:13;101156.75;;;29.54;68.17
51299;BME280;37382;45.192;9.790;2022-07-23T07:43:41;101160.59;;;29.58;68.23
51299;BME280;37382;45.192;9.790;2022-07-23T07:46:08;101149.56;;;29.61;69.31
51299;BME280;37382;45.192;9.790;2022-07-23T07:48:37;101151.66;;;29.56;68.35
51299;BME280;37382;45.192;9.790;2022-07-23T07:51:05;101153.31;;;29.79;68.01
51299;BME280;37382;45.192;9.790;2022-07-23T07:53:32;101161.97;;;29.83;64.57
51299;BME280;37382;45.192;9.790;2022-07-23T07:56:00;101150.97;;;29.73;64.61
51299;BME280;37382;45.192;9.790;2022-07-23T07:58:28;101149.06;;;30.27;64.68
51299;BME280;37382;45.192;9.790;2022-07-23T08:00:56;101156.53;;;30.32;65.15
51299;BME280;37382;45.192;9.790;2022-07-23T08:03:24;101155.16;;;30.29;65.74
51299;BME280;37382;45.192;9.790;2022-07-23T08:05:51;101154.38;;;30.38;65.10
51299;BME280;37382;45.192;9.790;2022-07-23T08:08:20;101150.50;;;30.47;62.75
51299;BME280;37382;45.192;9.790;2022-07-23T08:10:47;101149.47;;;30.83;60.76
51299;BME280;37382;45.192;9.790;2022-07-23T08:13:16;101149.19;;;30.94;58.66
51299;BME280;37382;45.192;9.790;2022-07-23T08:15:44;101152.41;;;31.10;57.61
51299;BME280;37382;45.192;9.790;2022-07-23T08:18:13;101146.47;;;31.29;58.04
51299;BME280;37382;45.192;9.790;2022-07-23T08:20:40;101145.50;;;31.25;57.78
51299;BME280;37382;45.192;9.790;2022-07-23T08:23:08;101146.47;;;31.29;57.51
51299;BME280;37382;45.192;9.790;2022-07-23T08:25:39;101151.47;;;31.58;58.09
51299;BME280;37382;45.192;9.790;2022-07-23T08:28:10;101144.50;;;31.73;55.59
51299;BME280;37382;45.192;9.790;2022-07-23T08:30:38;101144.84;;;31.89;55.96
51299;BME280;37382;45.192;9.790;2022-07-23T08:33:09;101150.28;;;31.85;52.67
51299;BME280;37382;45.192;9.790;2022-07-23T08:36:01;101146.31;;;31.78;53.50
51299;BME280;37382;45.192;9.790;2022-07-23T08:38:31;101158.72;;;32.03;52.92
51299;BME280;37382;45.192;9.790;2022-07-23T08:40:59;101149.97;;;32.13;51.57
51299;BME280;37382;45.192;9.790;2022-07-23T08:43:29;101148.41;;;32.33;52.27
51299;BME280;37382;45.192;9.790;2022-07-23T08:45:59;101157.22;;;32.05;52.65
51299;BME280;37382;45.192;9.790;2022-07-23T08:48:32;101168.50;;;32.05;55.09
51299;BME280;37382;45.192;9.790;2022-07-23T08:51:02;101160.56;;;31.81;57.90
51299;BME280;37382;45.192;9.790;2022-07-23T08:53:32;101170.50;;;31.70;57.95
51299;BME280;37382;45.192;9.790;2022-07-23T08:56:02;101173.16;;;31.66;58.45
51299;BME280;37382;45.192;9.790;2022-07-23T08:58:31;101172.13;;;32.06;56.98
51299;BME280;37382;45.192;9.790;2022-07-23T09:00:59;101165.03;;;31.56;57.23
51299;BME280;37382;45.192;9.790;2022-07-23T09:03:30;101171.81;;;31.72;57.88
51299;BME280;37382;45.192;9.790;2022-07-23T09:05:58;101163.06;;;31.65;56.92
51299;BME280;37382;45.192;9.790;2022-07-23T09:08:42;101162.50;;;31.46;57.53
51299;BME280;37382;45.192;9.790;2022-07-23T09:11:12;101169.34;;;31.62;55.65
51299;BME280;37382;45.192;9.790;2022-07-23T09:13:50;101164.88;;;31.70;56.61
51299;BME280;37382;45.192;9.790;2022-07-23T09:16:30;101162.72;;;32.10;55.12
51299;BME280;37382;45.192;9.790;2022-07-23T09:19:00;101158.25;;;31.83;54.55
51299;BME280;37382;45.192;9.790;2022-07-23T09:21:30;101153.56;;;31.35;54.78
51299;BME280;37382;45.192;9.790;2022-07-23T09:26:35;101149.28;;;32.07;54.61
51299;BME280;37382;45.192;9.790;2022-07-23T09:29:30;101146.66;;;31.93;54.64
51299;BME280;37382;45.192;9.790;2022-07-23T09:32:01;101144.50;;;32.55;54.18
51299;BME280;37382;45.192;9.790;2022-07-23T09:34:34;101149.78;;;32.18;53.80
51299;BME280;37382;45.192;9.790;2022-07-23T09:37:17;101155.59;;;32.13;53.36
51299;BME280;37382;45.192;9.790;2022-07-23T09:39:46;101142.81;;;32.63;51.74
51299;BME280;37382;45.192;9.790;2022-07-23T09:42:20;101149.28;;;32.16;52.16
51299;BME280;37382;45.192;9.790;2022-07-23T09:44:49;101145.72;;;32.45;52.67
51299;BME280;37382;45.192;9.790;2022-07-23T09:47:17;101136.75;;;32.91;51.46
51299;BME280;37382;45.192;9.790;2022-07-23T09:50:07;101147.66;;;32.54;54.65
51299;BME280;37382;45.192;9.790;2022-07-23T09:52:42;101146.03;;;32.53;54.97
51299;BME280;37382;45.192;9.790;2022-07-23T09:55:10;101136.00;;;32.64;54.58
51299;BME280;37382;45.192;9.790;2022-07-23T09:57:40;101142.13;;;32.75;54.42
51299;BME280;37382;45.192;9.790;2022-07-23T10:00:09;101138.38;;;32.92;52.27
51299;BME280;37382;45.192;9.790;2022-07-23T10:02:39;101131.44;;;32.89;52.48
51299;BME280;37382;45.192;9.790;2022-07-23T10:05:25;101131.81;;;32.40;53.45
51299;BME280;37382;45.192;9.790;2022-07-23T10:08:18;101139.31;;;32.27;52.43
51299;BME280;37382;45.192;9.790;2022-07-23T10:11:06;101136.84;;;32.64;52.16
51299;BME280;37382;45.192;9.790;2022-07-23T10:13:47;101133.16;;;33.03;51.47
51299;BME280;37382;45.192;9.790;2022-07-23T10:16:17;101130.00;;;32.83;51.16
51299;BME280;37382;45.192;9.790;2022-07-23T10:18:54;101131.41;;;32.59;52.15
51299;BME280;37382;45.192;9.790;2022-07-23T10:21:46;101120.53;;;32.88;50.91
51299;BME280;37382;45.192;9.790;2022-07-23T10:30:05;101113.00;;;33.64;48.22
51299;BME280;37382;45.192;9.790;2022-07-23T10:32:49;101115.53;;;33.78;47.65
51299;BME280;37382;45.192;9.790;2022-07-23T10:35:28;101106.59;;;33.76;48.63
51299;BME280;37382;45.192;9.790;2022-07-23T10:38:07;101110.59;;;33.54;48.46
51299;BME280;37382;45.192;9.790;2022-07-23T10:40:53;101104.25;;;33.57;48.72
51299;BME280;37382;45.192;9.790;2022-07-23T10:43:21;101097.22;;;33.84;49.18
51299;BME280;37382;45.192;9.790;2022-07-23T10:45:49;101096.66;;;33.69;48.29
51299;BME280;37382;45.192;9.790;2022-07-23T10:48:23;101091.41;;;33.05;49.34
51299;BME280;37382;45.192;9.790;2022-07-23T10:59:23;101084.16;;;34.37;49.62
51299;BME280;37382;45.192;9.790;2022-07-23T11:01:51;101074.94;;;34.16;47.41
51299;BME280;37382;45.192;9.790;2022-07-23T11:04:19;101067.47;;;34.45;47.66
51299;BME280;37382;45.192;9.790;2022-07-23T11:09:28;101058.28;;;34.48;44.36
51299;BME280;37382;45.192;9.790;2022-07-23T11:15:15;101054.38;;;34.65;42.76
51299;BME280;37382;45.192;9.790;2022-07-23T11:25:14;101052.38;;;35.59;41.56
51299;BME280;37382;45.192;9.790;2022-07-23T11:28:12;101053.84;;;35.69;41.36
51299;BME280;37382;45.192;9.790;2022-07-23T11:30:44;101046.63;;;36.31;39.61
51299;BME280;37382;45.192;9.790;2022-07-23T11:35:45;101037.47;;;36.22;39.40
51299;BME280;37382;45.192;9.790;2022-07-23T11:38:16;101038.00;;;36.12;39.16
51299;BME280;37382;45.192;9.790;2022-07-23T11:40:49;101038.47;;;35.98;38.24
51299;BME280;37382;45.192;9.790;2022-07-23T11:43:18;101027.84;;;36.59;37.55
51299;BME280;37382;45.192;9.790;2022-07-23T11:45:48;101028.22;;;37.12;35.97
51299;BME280;37382;45.192;9.790;2022-07-23T11:48:26;101028.81;;;36.31;35.49
51299;BME280;37382;45.192;9.790;2022-07-23T11:50:55;101025.75;;;36.56;36.01
51299;BME280;37382;45.192;9.790;2022-07-23T11:53:30;101024.94;;;36.39;37.11
51299;BME280;37382;45.192;9.790;2022-07-23T11:56:09;101019.28;;;36.91;34.66
51299;BME280;37382;45.192;9.790;2022-07-23T11:58:38;101011.00;;;36.30;35.27
51299;BME280;37382;45.192;9.790;2022-07-23T12:01:06;100998.06;;;36.84;35.29
51299;BME280;37382;45.192;9.790;2022-07-23T12:03:52;101007.03;;;37.06;35.76
51299;BME280;37382;45.192;9.790;2022-07-23T12:06:19;100994.22;;;37.74;34.90
51299;BME280;37382;45.192;9.790;2022-07-23T12:08:47;100988.72;;;38.08;34.03
51299;BME280;37382;45.192;9.790;2022-07-23T12:11:15;100989.44;;;37.59;34.61
51299;BME280;37382;45.192;9.790;2022-07-23T12:13:42;100979.63;;;37.99;34.40
51299;BME280;37382;45.192;9.790;2022-07-23T12:16:10;100982.69;;;38.37;33.84
51299;BME280;37382;45.192;9.790;2022-07-23T12:18:38;100972.28;;;39.09;31.87
51299;BME280;37382;45.192;9.790;2022-07-23T12:21:06;100977.50;;;39.37;32.71
51299;BME280;37382;45.192;9.790;2022-07-23T12:23:34;100976.78;;;38.79;33.09
51299;BME280;37382;45.192;9.790;2022-07-23T12:26:05;100974.56;;;39.64;32.15
51299;BME280;37382;45.192;9.790;2022-07-23T12:28:34;100976.34;;;39.87;32.06
51299;BME280;37382;45.192;9.790;2022-07-23T12:31:04;100980.06;;;39.12;33.74
51299;BME280;37382;45.192;9.790;2022-07-23T12:33:34;100971.06;;;37.72;34.33
51299;BME280;37382;45.192;9.790;2022-07-23T12:36:04;100972.59;;;37.47;34.14
51299;BME280;37382;45.192;9.790;2022-07-23T12:38:39;100984.00;;;37.50;36.17
51299;BME280;37382;45.192;9.790;2022-07-23T12:41:07;100980.41;;;36.56;34.83
51299;BME280;37382;45.192;9.790;2022-07-23T12:43:43;100978.81;;;37.99;33.74
51299;BME280;37382;45.192;9.790;2022-07-23T12:46:20;100980.66;;;38.64;34.29
51299;BME280;37382;45.192;9.790;2022-07-23T12:51:27;100980.78;;;39.39;33.36
51299;BME280;37382;45.192;9.790;2022-07-23T12:53:59;100981.53;;;38.99;32.39
51299;BME280;37382;45.192;9.790;2022-07-23T12:56:34;100975.53;;;38.47;33.30
51299;BME280;37382;45.192;9.790;2022-07-23T12:59:10;100970.25;;;39.43;32.79
51299;BME280;37382;45.192;9.790;2022-07-23T13:01:40;100965.50;;;38.83;32.91
51299;BME280;37382;45.192;9.790;2022-07-23T13:04:15;100971.59;;;38.58;33.92
51299;BME280;37382;45.192;9.790;2022-07-23T13:09:15;100957.47;;;38.35;34.01
51299;BME280;37382;45.192;9.790;2022-07-23T13:11:43;100963.13;;;38.32;34.20
51299;BME280;37382;45.192;9.790;2022-07-23T13:14:15;100956.06;;;38.49;34.35
51299;BME280;37382;45.192;9.790;2022-07-23T13:16:44;100951.31;;;38.60;34.85
51299;BME280;37382;45.192;9.790;2022-07-23T13:19:12;100953.53;;;38.70;35.12
51299;BME280;37382;45.192;9.790;2022-07-23T13:21:41;100962.03;;;39.01;33.25
51299;BME280;37382;45.192;9.790;2022-07-23T13:24:12;100955.19;;;39.43;33.05
51299;BME280;37382;45.192;9.790;2022-07-23T13:26:40;100954.53;;;40.01;33.76
51299;BME280;37382;45.192;9.790;2022-07-23T13:29:08;100952.19;;;40.14;32.57
51299;BME280;37382;45.192;9.790;2022-07-23T13:31:37;100953.44;;;39.69;33.12
51299;BME280;37382;45.192;9.790;2022-07-23T13:34:06;100951.06;;;39.03;32.39
51299;BME280;37382;45.192;9.790;2022-07-23T13:36:35;100943.66;;;39.66;32.12
51299;BME280;37382;45.192;9.790;2022-07-23T13:39:04;100947.38;;;39.32;31.98
51299;BME280;37382;45.192;9.790;2022-07-23T13:41:34;100939.69;;;40.33;32.69
51299;BME280;37382;45.192;9.790;2022-07-23T13:44:02;100937.06;;;40.69;31.08
51299;BME280;37382;45.192;9.790;2022-07-23T13:46:30;100942.06;;;39.69;31.57
51299;BME280;37382;45.192;9.790;2022-07-23T13:48:58;100949.03;;;40.30;31.22
51299;BME280;37382;45.192;9.790;2022-07-23T13:51:26;100933.16;;;41.28;30.08
51299;BME280;37382;45.192;9.790;2022-07-23T13:53:55;100931.13;;;41.21;29.87
51299;BME280;37382;45.192;9.790;2022-07-23T13:56:24;100933.25;;;41.75;29.85
51299;BME280;37382;45.192;9.790;2022-07-23T13:58:51;100926.97;;;40.97;29.92
51299;BME280;37382;45.192;9.790;2022-07-23T14:01:20;100935.50;;;40.16;29.82
51299;BME280;37382;45.192;9.790;2022-07-23T14:03:47;100926.16;;;40.93;29.38
51299;BME280;37382;45.192;9.790;2022-07-23T14:06:15;100932.06;;;39.48;31.70
51299;BME280;37382;45.192;9.790;2022-07-23T14:08:44;100928.00;;;39.49;32.65
51299;BME280;37382;45.192;9.790;2022-07-23T14:11:12;100933.50;;;39.27;33.05
51299;BME280;37382;45.192;9.790;2022-07-23T14:13:39;100922.09;;;40.94;31.45
51299;BME280;37382;45.192;9.790;2022-07-23T14:16:08;100918.38;;;40.90;30.44
51299;BME280;37382;45.192;9.790;2022-07-23T14:18:35;100926.22;;;40.27;31.43
51299;BME280;37382;45.192;9.790;2022-07-23T14:21:04;100918.31;;;40.76;31.32
51299;BME280;37382;45.192;9.790;2022-07-23T14:23:33;100918.34;;;40.86;32.31
51299;BME280;37382;45.192;9.790;2022-07-23T14:26:01;100920.06;;;40.98;32.33
51299;BME280;37382;45.192;9.790;2022-07-23T14:28:33;100912.22;;;40.73;31.60
51299;BME280;37382;45.192;9.790;2022-07-23T14:31:02;100922.94;;;39.73;32.01
51299;BME280;37382;45.192;9.790;2022-07-23T14:33:30;100922.66;;;38.72;34.91
51299;BME280;37382;45.192;9.790;2022-07-23T14:35:57;100914.22;;;37.92;35.79
51299;BME280;37382;45.192;9.790;2022-07-23T14:38:27;100921.19;;;37.98;37.02
51299;BME280;37382;45.192;9.790;2022-07-23T14:40:55;100915.63;;;38.05;37.51
51299;BME280;37382;45.192;9.790;2022-07-23T14:43:23;100905.69;;;38.19;37.06
51299;BME280;37382;45.192;9.790;2022-07-23T14:45:50;100912.78;;;37.79;38.22
51299;BME280;37382;45.192;9.790;2022-07-23T14:48:19;100916.81;;;38.61;37.34
51299;BME280;37382;45.192;9.790;2022-07-23T14:50:47;100903.63;;;38.46;38.17
51299;BME280;37382;45.192;9.790;2022-07-23T14:53:15;100906.28;;;38.92;37.72
51299;BME280;37382;45.192;9.790;2022-07-23T14:55:49;100908.63;;;38.83;37.42
51299;BME280;37382;45.192;9.790;2022-07-23T14:58:16;100901.88;;;39.84;35.97
51299;BME280;37382;45.192;9.790;2022-07-23T15:00:44;100898.22;;;42.92;32.28
51299;BME280;37382;45.192;9.790;2022-07-23T15:03:12;100888.34;;;43.63;31.13
51299;BME280;37382;45.192;9.790;2022-07-23T15:05:42;100887.78;;;47.09;25.95
51299;BME280;37382;45.192;9.790;2022-07-23T15:08:09;100886.25;;;46.27;26.93
51299;BME280;37382;45.192;9.790;2022-07-23T15:10:37;100880.09;;;45.34;28.26
51299;BME280;37382;45.192;9.790;2022-07-23T15:13:04;100892.88;;;45.57;27.69
51299;BME280;37382;45.192;9.790;2022-07-23T15:15:34;100893.75;;;45.26;27.50
51299;BME280;37382;45.192;9.790;2022-07-23T15:18:02;100889.84;;;46.11;26.37
51299;BME280;37382;45.192;9.790;2022-07-23T15:20:29;100884.84;;;48.37;24.21
51299;BME280;37382;45.192;9.790;2022-07-23T15:23:05;100873.63;;;49.20;23.45
51299;BME280;37382;45.192;9.790;2022-07-23T15:25:57;100873.81;;;49.86;22.60
51299;BME280;37382;45.192;9.790;2022-07-23T15:28:24;100874.06;;;46.96;25.09
51299;BME280;37382;45.192;9.790;2022-07-23T15:30:52;100878.97;;;47.82;24.63
51299;BME280;37382;45.192;9.790;2022-07-23T15:33:20;100883.38;;;46.67;25.61
51299;BME280;37382;45.192;9.790;2022-07-23T15:35:48;100883.47;;;46.00;26.50
51299;BME280;37382;45.192;9.790;2022-07-23T15:38:16;100882.56;;;42.26;31.41
51299;BME280;37382;45.192;9.790;2022-07-23T15:40:53;100885.91;;;41.85;32.75
51299;BME280;37382;45.192;9.790;2022-07-23T15:43:25;100880.44;;;42.48;31.09
51299;BME280;37382;45.192;9.790;2022-07-23T15:45:53;100878.91;;;42.22;32.06
51299;BME280;37382;45.192;9.790;2022-07-23T15:48:21;100882.81;;;40.62;34.49
51299;BME280;37382;45.192;9.790;2022-07-23T15:50:49;100886.44;;;39.00;37.11
51299;BME280;37382;45.192;9.790;2022-07-23T15:53:18;100878.28;;;43.89;30.26
51299;BME280;37382;45.192;9.790;2022-07-23T15:56:04;100869.34;;;45.66;27.68
51299;BME280;37382;45.192;9.790;2022-07-23T15:58:32;100879.69;;;48.44;25.30
51299;BME280;37382;45.192;9.790;2022-07-23T16:01:00;100878.38;;;49.01;24.28
51299;BME280;37382;45.192;9.790;2022-07-23T16:03:31;100866.38;;;50.42;23.46
51299;BME280;37382;45.192;9.790;2022-07-23T16:05:59;100862.28;;;49.12;24.78
51299;BME280;37382;45.192;9.790;2022-07-23T16:08:27;100866.03;;;50.94;23.01
51299;BME280;37382;45.192;9.790;2022-07-23T16:10:55;100857.88;;;50.48;22.15
51299;BME280;37382;45.192;9.790;2022-07-23T16:13:26;100857.25;;;52.55;20.65
51299;BME280;37382;45.192;9.790;2022-07-23T16:15:54;100852.94;;;49.34;24.32
51299;BME280;37382;45.192;9.790;2022-07-23T16:18:22;100857.44;;;48.84;25.36
51299;BME280;37382;45.192;9.790;2022-07-23T16:20:52;100844.63;;;49.71;23.58
51299;BME280;37382;45.192;9.790;2022-07-23T16:23:20;100854.53;;;50.81;22.52
51299;BME280;37382;45.192;9.790;2022-07-23T16:25:48;100857.03;;;46.09;27.16
51299;BME280;37382;45.192;9.790;2022-07-23T16:28:16;100845.72;;;46.78;26.58
51299;BME280;37382;45.192;9.790;2022-07-23T16:30:43;100849.94;;;43.53;31.31
51299;BME280;37382;45.192;9.790;2022-07-23T16:33:11;100852.00;;;43.53;32.21
51299;BME280;37382;45.192;9.790;2022-07-23T16:35:39;100846.03;;;44.51;30.70
51299;BME280;37382;45.192;9.790;2022-07-23T16:38:06;100851.84;;;43.71;32.38
51299;BME280;37382;45.192;9.790;2022-07-23T16:40:34;100850.19;;;42.58;34.39
51299;BME280;37382;45.192;9.790;2022-07-23T16:43:02;100851.47;;;40.62;37.23
51299;BME280;37382;45.192;9.790;2022-07-23T16:45:29;100855.22;;;38.69;41.25
51299;BME280;37382;45.192;9.790;2022-07-23T16:47:57;100845.47;;;38.70;41.26
51299;BME280;37382;45.192;9.790;2022-07-23T16:50:25;100855.69;;;38.14;43.56
51299;BME280;37382;45.192;9.790;2022-07-23T16:52:53;100845.13;;;41.48;38.29
51299;BME280;37382;45.192;9.790;2022-07-23T16:55:20;100847.06;;;43.05;35.41
51299;BME280;37382;45.192;9.790;2022-07-23T16:57:48;100838.91;;;40.81;38.30
51299;BME280;37382;45.192;9.790;2022-07-23T17:00:16;100841.44;;;41.62;37.04
51299;BME280;37382;45.192;9.790;2022-07-23T17:02:43;100842.66;;;41.61;37.62
51299;BME280;37382;45.192;9.790;2022-07-23T17:05:11;100839.75;;;41.03;38.83
51299;BME280;37382;45.192;9.790;2022-07-23T17:07:39;100837.97;;;39.75;40.75
51299;BME280;37382;45.192;9.790;2022-07-23T17:10:08;100844.22;;;40.90;38.68
51299;BME280;37382;45.192;9.790;2022-07-23T17:12:37;100843.47;;;41.83;36.91
51299;BME280;37382;45.192;9.790;2022-07-23T17:15:05;100840.19;;;41.09;38.05
51299;BME280;37382;45.192;9.790;2022-07-23T17:17:34;100841.72;;;39.90;40.57
51299;BME280;37382;45.192;9.790;2022-07-23T17:20:04;100846.97;;;39.36;41.74
51299;BME280;37382;45.192;9.790;2022-07-23T17:22:33;100840.06;;;38.01;44.42
51299;BME280;37382;45.192;9.790;2022-07-23T17:25:01;100845.81;;;38.04;44.86
51299;BME280;37382;45.192;9.790;2022-07-23T17:27:29;100843.72;;;37.25;46.10
51299;BME280;37382;45.192;9.790;2022-07-23T17:29:58;100845.13;;;38.41;44.50
51299;BME280;37382;45.192;9.790;2022-07-23T17:32:25;100839.22;;;39.81;42.46
51299;BME280;37382;45.192;9.790;2022-07-23T17:34:53;100846.88;;;38.87;43.25
51299;BME280;37382;45.192;9.790;2022-07-23T17:37:20;100847.59;;;38.77;44.11
51299;BME280;37382;45.192;9.790;2022-07-23T17:39:48;100840.84;;;37.98;45.45
51299;BME280;37382;45.192;9.790;2022-07-23T17:42:18;100840.94;;;37.51;45.76
51299;BME280;37382;45.192;9.790;2022-07-23T17:44:45;100835.94;;;37.95;45.97
51299;BME280;37382;45.192;9.790;2022-07-23T17:47:13;100838.31;;;37.89;46.10
51299;BME280;37382;45.192;9.790;2022-07-23T17:49:41;100841.41;;;38.07;45.78
51299;BME280;37382;45.192;9.790;2022-07-23T17:52:08;100840.25;;;37.35;47.43
51299;BME280;37382;45.192;9.790;2022-07-23T17:54:36;100848.47;;;37.67;47.70
51299;BME280;37382;45.192;9.790;2022-07-23T17:57:03;100855.91;;;35.92;50.21
51299;BME280;37382;45.192;9.790;2022-07-23T17:59:33;100853.31;;;35.83;49.09
51299;BME280;37382;45.192;9.790;2022-07-23T18:02:01;100852.56;;;35.38;49.74
51299;BME280;37382;45.192;9.790;2022-07-23T18:04:28;100857.41;;;35.70;48.93
51299;BME280;37382;45.192;9.790;2022-07-23T18:06:56;100868.16;;;34.88;50.22
51299;BME280;37382;45.192;9.790;2022-07-23T18:09:23;100873.28;;;34.70;51.24
51299;BME280;37382;45.192;9.790;2022-07-23T18:11:51;100865.88;;;34.65;51.64
51299;BME280;37382;45.192;9.790;2022-07-23T18:14:18;100863.72;;;34.74;51.71
51299;BME280;37382;45.192;9.790;2022-07-23T18:16:46;100868.31;;;34.51;51.45
51299;BME280;37382;45.192;9.790;2022-07-23T18:19:13;100868.00;;;34.40;52.08
51299;BME280;37382;45.192;9.790;2022-07-23T18:21:41;100867.56;;;34.01;52.31
51299;BME280;37382;45.192;9.790;2022-07-23T18:24:08;100874.63;;;33.95;53.00
51299;BME280;37382;45.192;9.790;2022-07-23T18:26:36;100873.31;;;33.67;53.77
51299;BME280;37382;45.192;9.790;2022-07-23T18:29:03;100881.09;;;33.83;53.49
51299;BME280;37382;45.192;9.790;2022-07-23T18:31:31;100883.53;;;34.09;53.26
51299;BME280;37382;45.192;9.790;2022-07-23T18:33:59;100886.00;;;34.11;52.41
51299;BME280;37382;45.192;9.790;2022-07-23T18:36:26;100885.91;;;34.07;51.77
51299;BME280;37382;45.192;9.790;2022-07-23T18:38:57;100883.78;;;33.55;53.25
51299;BME280;37382;45.192;9.790;2022-07-23T18:41:34;100891.50;;;33.45;54.02
51299;BME280;37382;45.192;9.790;2022-07-23T18:44:02;100892.00;;;33.60;53.65
51299;BME280;37382;45.192;9.790;2022-07-23T18:46:30;100889.66;;;33.62;53.47
51299;BME280;37382;45.192;9.790;2022-07-23T18:48:57;100907.59;;;33.32;54.73
51299;BME280;37382;45.192;9.790;2022-07-23T18:51:25;100903.63;;;33.12;54.96
51299;BME280;37382;45.192;9.790;2022-07-23T18:53:53;100907.63;;;33.11;55.33
51299;BME280;37382;45.192;9.790;2022-07-23T18:56:21;100909.31;;;32.91;55.87
51299;BME280;37382;45.192;9.790;2022-07-23T18:58:48;100915.66;;;32.67;56.78
51299;BME280;37382;45.192;9.790;2022-07-23T19:01:16;100917.56;;;32.54;57.08
51299;BME280;37382;45.192;9.790;2022-07-23T19:03:44;100913.53;;;32.34;57.80
51299;BME280;37382;45.192;9.790;2022-07-23T19:06:12;100920.53;;;32.28;58.65
51299;BME280;37382;45.192;9.790;2022-07-23T19:08:39;100921.72;;;32.27;58.72
51299;BME280;37382;45.192;9.790;2022-07-23T19:11:08;100929.66;;;32.55;58.12
51299;BME280;37382;45.192;9.790;2022-07-23T19:13:35;100924.22;;;32.71;57.80
51299;BME280;37382;45.192;9.790;2022-07-23T19:16:04;100925.44;;;32.61;57.88
51299;BME280;37382;45.192;9.790;2022-07-23T19:18:33;100933.81;;;32.27;58.82
51299;BME280;37382;45.192;9.790;2022-07-23T19:21:00;100935.16;;;32.21;59.25
51299;BME280;37382;45.192;9.790;2022-07-23T19:23:28;100941.28;;;32.23;59.65
51299;BME280;37382;45.192;9.790;2022-07-23T19:25:55;100941.09;;;32.28;59.53
51299;BME280;37382;45.192;9.790;2022-07-23T19:28:23;100944.03;;;32.32;59.63
51299;BME280;37382;45.192;9.790;2022-07-23T19:30:50;100942.50;;;32.05;60.55
51299;BME280;37382;45.192;9.790;2022-07-23T19:33:18;100948.38;;;31.91;60.93
51299;BME280;37382;45.192;9.790;2022-07-23T19:35:45;100950.63;;;31.50;62.59
51299;BME280;37382;45.192;9.790;2022-07-23T19:38:15;100958.25;;;31.50;62.93
51299;BME280;37382;45.192;9.790;2022-07-23T19:40:43;100951.16;;;31.61;62.84
51299;BME280;37382;45.192;9.790;2022-07-23T19:43:10;100966.50;;;31.72;62.62
51299;BME280;37382;45.192;9.790;2022-07-23T19:45:38;100960.25;;;31.58;63.38
51299;BME280;37382;45.192;9.790;2022-07-23T19:48:08;100967.84;;;31.66;63.07
51299;BME280;37382;45.192;9.790;2022-07-23T19:50:35;100960.41;;;31.62;63.61
51299;BME280;37382;45.192;9.790;2022-07-23T19:53:03;100960.00;;;31.81;63.01
51299;BME280;37382;45.192;9.790;2022-07-23T19:55:31;100962.47;;;31.82;62.56
51299;BME280;37382;45.192;9.790;2022-07-23T19:57:58;100969.00;;;31.56;63.75
51299;BME280;37382;45.192;9.790;2022-07-23T20:00:26;100970.03;;;31.43;64.02
51299;BME280;37382;45.192;9.790;2022-07-23T20:02:54;100973.66;;;31.52;63.67
51299;BME280;37382;45.192;9.790;2022-07-23T20:05:23;100976.47;;;31.44;63.80
51299;BME280;37382;45.192;9.790;2022-07-23T20:07:50;100975.69;;;31.17;64.80
51299;BME280;37382;45.192;9.790;2022-07-23T20:10:18;100982.13;;;31.17;64.74
51299;BME280;37382;45.192;9.790;2022-07-23T20:12:45;100985.28;;;31.16;64.47
51299;BME280;37382;45.192;9.790;2022-07-23T20:15:13;100986.63;;;31.10;64.62
51299;BME280;37382;45.192;9.790;2022-07-23T20:17:41;100989.22;;;30.80;65.47
51299;BME280;37382;45.192;9.790;2022-07-23T20:20:09;100994.00;;;30.71;65.68
51299;BME280;37382;45.192;9.790;2022-07-23T20:22:36;100984.56;;;30.66;65.79
51299;BME280;37382;45.192;9.790;2022-07-23T20:25:05;100995.47;;;30.68;65.39
51299;BME280;37382;45.192;9.790;2022-07-23T20:27:33;100992.34;;;30.61;65.80
51299;BME280;37382;45.192;9.790;2022-07-23T20:30:02;100987.41;;;30.75;65.16
51299;BME280;37382;45.192;9.790;2022-07-23T20:32:31;100994.97;;;30.57;65.81
51299;BME280;37382;45.192;9.790;2022-07-23T20:34:59;101003.06;;;30.59;65.51
51299;BME280;37382;45.192;9.790;2022-07-23T20:37:26;100998.25;;;30.42;66.59
51299;BME280;37382;45.192;9.790;2022-07-23T20:39:54;101000.09;;;30.55;66.20
51299;BME280;37382;45.192;9.790;2022-07-23T20:42:21;100994.38;;;30.38;66.55
51299;BME280;37382;45.192;9.790;2022-07-23T20:44:49;101005.63;;;30.29;67.18
51299;BME280;37382;45.192;9.790;2022-07-23T20:47:17;100998.63;;;30.17;67.28
51299;BME280;37382;45.192;9.790;2022-07-23T20:49:45;101002.59;;;30.16;66.83
51299;BME280;37382;45.192;9.790;2022-07-23T20:52:13;101008.34;;;30.11;66.60
51299;BME280;37382;45.192;9.790;2022-07-23T20:54:49;101004.94;;;29.83;67.45
51299;BME280;37382;45.192;9.790;2022-07-23T20:57:16;101007.13;;;29.95;67.12